sensor_id;sensor_type;location;lat;lon;timestamp;temperature;humidity
19880;DHT22;10102;50.828;4.416;2023-02-02T00:01:48;9.60;99.90
19880;DHT22;10102;50.828;4.416;2023-02-02T00:04:18;9.60;99.90
19880;DHT22;10102;50.828;4.416;2023-02-02T00:06:43;9.70;99.90
19880;DHT22;10102;50.828;4.416;2023-02-02T00:09:13;10.00;99.90
19880;DHT22;10102;50.828;4.416;2023-02-02T00:11:40;9.80;99.90
19880;DHT22;10102;50.828;4.416;2023-02-02T00:14:06;9.90;99.90
19880;DHT22;10102;50.828;4.416;2023-02-02T00:16:34;9.80;99.90
19880;DHT22;10102;50.828;4.416;2023-02-02T00:19:14;9.80;99.90
19880;DHT22;10102;50.828;4.416;2023-02-02T00:21:41;9.70;99.90
19880;DHT22;10102;50.828;4.416;2023-02-02T00:24:08;9.80;99.90
19880;DHT22;10102;50.828;4.416;2023-02-02T00:26:36;9.70;99.90
19880;DHT22;10102;50.828;4.416;2023-02-02T00:29:03;9.70;99.90
19880;DHT22;10102;50.828;4.416;2023-02-02T00:31:28;9.70;99.90
19880;DHT22;10102;50.828;4.416;2023-02-02T00:33:54;9.80;99.90
19880;DHT22;10102;50.828;4.416;2023-02-02T00:36:21;9.90;99.90
19880;DHT22;10102;50.828;4.416;2023-02-02T00:38:49;9.90;99.90
19880;DHT22;10102;50.828;4.416;2023-02-02T00:41:15;10.00;99.90
19880;DHT22;10102;50.828;4.416;2023-02-02T00:46:17;10.00;99.90
19880;DHT22;10102;50.828;4.416;2023-02-02T00:51:09;9.90;99.90
19880;DHT22;10102;50.828;4.416;2023-02-02T00:53:34;9.90;99.90
19880;DHT22;10102;50.828;4.416;2023-02-02T00:56:00;10.20;99.90
19880;DHT22;10102;50.828;4.416;2023-02-02T00:58:26;9.80;99.90
19880;DHT22;10102;50.828;4.416;2023-02-02T01:00:52;9.80;99.90
19880;DHT22;10102;50.828;4.416;2023-02-02T01:03:17;9.70;99.90
19880;DHT22;10102;50.828;4.416;2023-02-02T01:05:44;9.60;99.90
19880;DHT22;10102;50.828;4.416;2023-02-02T01:08:10;9.50;99.90
19880;DHT22;10102;50.828;4.416;2023-02-02T01:10:36;9.60;99.90
19880;DHT22;10102;50.828;4.416;2023-02-02T01:13:02;9.30;99.90
19880;DHT22;10102;50.828;4.416;2023-02-02T01:15:28;9.60;99.90
19880;DHT22;10102;50.828;4.416;2023-02-02T01:17:55;9.30;99.90
19880;DHT22;10102;50.828;4.416;2023-02-02T01:20:21;9.60;99.90
19880;DHT22;10102;50.828;4.416;2023-02-02T01:22:47;9.70;99.90
19880;DHT22;10102;50.828;4.416;2023-02-02T01:25:13;9.60;99.90
19880;DHT22;10102;50.828;4.416;2023-02-02T01:30:05;9.40;99.90
19880;DHT22;10102;50.828;4.416;2023-02-02T01:32:31;9.60;99.90
19880;DHT22;10102;50.828;4.416;2023-02-02T01:34:57;9.80;99.90
19880;DHT22;10102;50.828;4.416;2023-02-02T01:37:24;9.60;99.90
19880;DHT22;10102;50.828;4.416;2023-02-02T01:42:20;9.70;99.90
19880;DHT22;10102;50.828;4.416;2023-02-02T01:45:16;9.60;99.90
19880;DHT22;10102;50.828;4.416;2023-02-02T01:47:45;9.70;99.90
19880;DHT22;10102;50.828;4.416;2023-02-02T01:50:14;9.70;99.90
19880;DHT22;10102;50.828;4.416;2023-02-02T01:52:42;9.80;99.90
19880;DHT22;10102;50.828;4.416;2023-02-02T01:55:11;9.80;99.90
19880;DHT22;10102;50.828;4.416;2023-02-02T01:57:50;9.60;99.90
19880;DHT22;10102;50.828;4.416;2023-02-02T02:00:18;9.70;99.90
19880;DHT22;10102;50.828;4.416;2023-02-02T02:02:51;9.60;99.90
19880;DHT22;10102;50.828;4.416;2023-02-02T02:05:28;9.60;99.90
19880;DHT22;10102;50.828;4.416;2023-02-02T02:08:01;9.60;99.90
19880;DHT22;10102;50.828;4.416;2023-02-02T02:10:27;9.70;99.90
19880;DHT22;10102;50.828;4.416;2023-02-02T02:12:53;9.70;99.90
19880;DHT22;10102;50.828;4.416;2023-02-02T02:15:19;9.70;99.90
19880;DHT22;10102;50.828;4.416;2023-02-02T02:18:24;9.20;99.90
19880;DHT22;10102;50.828;4.416;2023-02-02T02:27:15;9.60;99.90
19880;DHT22;10102;50.828;4.416;2023-02-02T02:30:05;9.80;99.90
19880;DHT22;10102;50.828;4.416;2023-02-02T02:35:38;9.70;99.90
19880;DHT22;10102;50.828;4.416;2023-02-02T02:38:28;9.80;99.90
19880;DHT22;10102;50.828;4.416;2023-02-02T02:41:00;9.80;99.90
19880;DHT22;10102;50.828;4.416;2023-02-02T02:43:32;9.80;99.90
19880;DHT22;10102;50.828;4.416;2023-02-02T02:46:03;9.40;99.90
19880;DHT22;10102;50.828;4.416;2023-02-02T02:48:29;9.70;99.90
19880;DHT22;10102;50.828;4.416;2023-02-02T02:51:52;9.60;99.90
19880;DHT22;10102;50.828;4.416;2023-02-02T02:53:52;9.60;99.90
19880;DHT22;10102;50.828;4.416;2023-02-02T02:56:53;9.90;99.90
19880;DHT22;10102;50.828;4.416;2023-02-02T03:02:41;9.80;99.90
19880;DHT22;10102;50.828;4.416;2023-02-02T03:10:50;9.50;99.90
19880;DHT22;10102;50.828;4.416;2023-02-02T03:13:16;9.70;99.90
19880;DHT22;10102;50.828;4.416;2023-02-02T03:15:43;9.60;99.90
19880;DHT22;10102;50.828;4.416;2023-02-02T03:18:11;9.80;99.90
19880;DHT22;10102;50.828;4.416;2023-02-02T03:20:38;9.50;99.90
19880;DHT22;10102;50.828;4.416;2023-02-02T03:23:04;9.30;99.90
19880;DHT22;10102;50.828;4.416;2023-02-02T03:25:29;9.60;99.90
19880;DHT22;10102;50.828;4.416;2023-02-02T03:27:58;9.60;99.90
19880;DHT22;10102;50.828;4.416;2023-02-02T03:30:24;9.50;99.90
19880;DHT22;10102;50.828;4.416;2023-02-02T03:32:51;9.50;99.90
19880;DHT22;10102;50.828;4.416;2023-02-02T03:35:17;9.50;99.90
19880;DHT22;10102;50.828;4.416;2023-02-02T03:37:46;9.30;99.90
19880;DHT22;10102;50.828;4.416;2023-02-02T03:40:13;9.40;99.90
19880;DHT22;10102;50.828;4.416;2023-02-02T03:42:39;9.40;99.90
19880;DHT22;10102;50.828;4.416;2023-02-02T03:45:06;9.50;99.90
19880;DHT22;10102;50.828;4.416;2023-02-02T03:47:33;9.60;99.90
19880;DHT22;10102;50.828;4.416;2023-02-02T03:52:25;9.70;99.90
19880;DHT22;10102;50.828;4.416;2023-02-02T03:54:51;9.70;99.90
19880;DHT22;10102;50.828;4.416;2023-02-02T03:57:17;9.70;99.90
19880;DHT22;10102;50.828;4.416;2023-02-02T03:59:43;9.60;99.90
19880;DHT22;10102;50.828;4.416;2023-02-02T04:04:35;9.60;99.90
19880;DHT22;10102;50.828;4.416;2023-02-02T04:07:00;9.60;99.90
19880;DHT22;10102;50.828;4.416;2023-02-02T04:09:26;9.70;99.90
19880;DHT22;10102;50.828;4.416;2023-02-02T04:11:53;9.60;99.90
19880;DHT22;10102;50.828;4.416;2023-02-02T04:14:19;9.60;99.90
19880;DHT22;10102;50.828;4.416;2023-02-02T04:16:45;9.50;99.90
19880;DHT22;10102;50.828;4.416;2023-02-02T04:19:11;9.10;99.90
19880;DHT22;10102;50.828;4.416;2023-02-02T04:21:40;9.50;99.90
19880;DHT22;10102;50.828;4.416;2023-02-02T04:24:08;9.90;99.90
19880;DHT22;10102;50.828;4.416;2023-02-02T04:26:34;9.70;99.90
19880;DHT22;10102;50.828;4.416;2023-02-02T04:29:01;9.80;99.90
19880;DHT22;10102;50.828;4.416;2023-02-02T04:31:28;9.50;99.90
19880;DHT22;10102;50.828;4.416;2023-02-02T04:33:55;9.50;99.90
19880;DHT22;10102;50.828;4.416;2023-02-02T04:36:21;9.40;99.90
19880;DHT22;10102;50.828;4.416;2023-02-02T04:38:51;9.50;99.90
19880;DHT22;10102;50.828;4.416;2023-02-02T04:41:17;9.50;99.90
19880;DHT22;10102;50.828;4.416;2023-02-02T04:43:46;9.60;99.90
19880;DHT22;10102;50.828;4.416;2023-02-02T04:46:13;9.20;99.90
19880;DHT22;10102;50.828;4.416;2023-02-02T04:48:39;9.40;99.90
19880;DHT22;10102;50.828;4.416;2023-02-02T04:51:09;9.30;99.90
19880;DHT22;10102;50.828;4.416;2023-02-02T04:53:35;9.40;99.90
19880;DHT22;10102;50.828;4.416;2023-02-02T04:56:06;9.50;99.90
19880;DHT22;10102;50.828;4.416;2023-02-02T04:58:32;9.60;99.90
19880;DHT22;10102;50.828;4.416;2023-02-02T05:00:57;9.40;99.90
19880;DHT22;10102;50.828;4.416;2023-02-02T05:03:23;9.50;99.90
19880;DHT22;10102;50.828;4.416;2023-02-02T05:05:49;9.60;99.90
19880;DHT22;10102;50.828;4.416;2023-02-02T05:08:14;9.50;99.90
19880;DHT22;10102;50.828;4.416;2023-02-02T05:10:40;9.60;99.90
19880;DHT22;10102;50.828;4.416;2023-02-02T05:13:06;9.50;99.90
19880;DHT22;10102;50.828;4.416;2023-02-02T05:15:32;9.30;99.90
19880;DHT22;10102;50.828;4.416;2023-02-02T05:17:58;9.10;99.90
19880;DHT22;10102;50.828;4.416;2023-02-02T05:20:23;9.20;99.90
19880;DHT22;10102;50.828;4.416;2023-02-02T05:22:49;9.20;99.90
19880;DHT22;10102;50.828;4.416;2023-02-02T05:25:15;9.10;99.90
19880;DHT22;10102;50.828;4.416;2023-02-02T05:27:45;9.00;99.90
19880;DHT22;10102;50.828;4.416;2023-02-02T05:30:12;9.10;99.90
19880;DHT22;10102;50.828;4.416;2023-02-02T05:32:39;8.90;99.90
19880;DHT22;10102;50.828;4.416;2023-02-02T05:35:05;9.00;99.90
19880;DHT22;10102;50.828;4.416;2023-02-02T05:37:31;8.80;99.90
19880;DHT22;10102;50.828;4.416;2023-02-02T05:39:57;8.90;99.90
19880;DHT22;10102;50.828;4.416;2023-02-02T05:42:23;9.00;99.90
19880;DHT22;10102;50.828;4.416;2023-02-02T05:44:48;8.90;99.90
19880;DHT22;10102;50.828;4.416;2023-02-02T05:47:15;9.20;99.90
19880;DHT22;10102;50.828;4.416;2023-02-02T05:49:41;9.00;99.90
19880;DHT22;10102;50.828;4.416;2023-02-02T05:52:14;9.00;99.90
19880;DHT22;10102;50.828;4.416;2023-02-02T05:54:42;10.20;99.90
19880;DHT22;10102;50.828;4.416;2023-02-02T05:57:09;8.80;99.90
19880;DHT22;10102;50.828;4.416;2023-02-02T05:59:35;8.80;99.90
19880;DHT22;10102;50.828;4.416;2023-02-02T06:02:03;8.50;99.90
19880;DHT22;10102;50.828;4.416;2023-02-02T06:06:54;9.00;99.90
19880;DHT22;10102;50.828;4.416;2023-02-02T06:09:21;9.10;99.90
19880;DHT22;10102;50.828;4.416;2023-02-02T06:11:48;8.80;99.90
19880;DHT22;10102;50.828;4.416;2023-02-02T06:14:14;8.80;99.90
19880;DHT22;10102;50.828;4.416;2023-02-02T06:16:40;8.80;99.90
19880;DHT22;10102;50.828;4.416;2023-02-02T06:19:06;8.90;99.90
19880;DHT22;10102;50.828;4.416;2023-02-02T06:21:31;8.80;99.90
19880;DHT22;10102;50.828;4.416;2023-02-02T06:23:58;8.80;99.90
19880;DHT22;10102;50.828;4.416;2023-02-02T06:26:24;8.80;99.90
19880;DHT22;10102;50.828;4.416;2023-02-02T06:28:51;9.10;99.90
19880;DHT22;10102;50.828;4.416;2023-02-02T06:31:19;8.80;99.90
19880;DHT22;10102;50.828;4.416;2023-02-02T06:33:47;8.80;99.90
19880;DHT22;10102;50.828;4.416;2023-02-02T06:36:16;8.80;99.90
19880;DHT22;10102;50.828;4.416;2023-02-02T06:38:42;8.80;99.90
19880;DHT22;10102;50.828;4.416;2023-02-02T06:41:08;8.80;99.90
19880;DHT22;10102;50.828;4.416;2023-02-02T06:43:35;9.10;99.90
19880;DHT22;10102;50.828;4.416;2023-02-02T06:46:01;8.80;99.90
19880;DHT22;10102;50.828;4.416;2023-02-02T06:48:27;8.70;99.90
19880;DHT22;10102;50.828;4.416;2023-02-02T06:50:52;8.80;99.90
19880;DHT22;10102;50.828;4.416;2023-02-02T06:53:18;9.20;99.90
19880;DHT22;10102;50.828;4.416;2023-02-02T06:55:54;8.90;99.90
19880;DHT22;10102;50.828;4.416;2023-02-02T06:58:20;8.70;99.90
19880;DHT22;10102;50.828;4.416;2023-02-02T07:00:46;8.60;99.90
19880;DHT22;10102;50.828;4.416;2023-02-02T07:03:17;8.70;99.90
19880;DHT22;10102;50.828;4.416;2023-02-02T07:05:45;8.60;99.90
19880;DHT22;10102;50.828;4.416;2023-02-02T07:08:10;8.60;99.90
19880;DHT22;10102;50.828;4.416;2023-02-02T07:10:37;8.50;99.90
19880;DHT22;10102;50.828;4.416;2023-02-02T07:13:06;8.60;99.90
19880;DHT22;10102;50.828;4.416;2023-02-02T07:15:32;8.70;99.90
19880;DHT22;10102;50.828;4.416;2023-02-02T07:17:59;8.60;99.90
19880;DHT22;10102;50.828;4.416;2023-02-02T07:20:25;8.60;99.90
19880;DHT22;10102;50.828;4.416;2023-02-02T07:27:43;8.40;99.90
19880;DHT22;10102;50.828;4.416;2023-02-02T07:30:11;8.70;99.90
19880;DHT22;10102;50.828;4.416;2023-02-02T07:32:37;8.40;99.90
19880;DHT22;10102;50.828;4.416;2023-02-02T07:35:03;8.50;99.90
19880;DHT22;10102;50.828;4.416;2023-02-02T07:37:28;8.50;99.90
19880;DHT22;10102;50.828;4.416;2023-02-02T07:39:54;8.70;99.90
19880;DHT22;10102;50.828;4.416;2023-02-02T07:42:20;9.00;99.90
19880;DHT22;10102;50.828;4.416;2023-02-02T07:44:45;8.80;99.90
19880;DHT22;10102;50.828;4.416;2023-02-02T07:49:37;9.00;99.90
19880;DHT22;10102;50.828;4.416;2023-02-02T07:52:03;8.80;99.90
19880;DHT22;10102;50.828;4.416;2023-02-02T07:54:28;8.90;99.90
19880;DHT22;10102;50.828;4.416;2023-02-02T07:56:56;8.80;99.90
19880;DHT22;10102;50.828;4.416;2023-02-02T07:59:22;8.90;99.90
19880;DHT22;10102;50.828;4.416;2023-02-02T08:01:47;9.00;99.90
19880;DHT22;10102;50.828;4.416;2023-02-02T08:04:13;9.00;99.90
19880;DHT22;10102;50.828;4.416;2023-02-02T08:06:41;9.00;99.90
19880;DHT22;10102;50.828;4.416;2023-02-02T08:09:08;8.90;99.90
19880;DHT22;10102;50.828;4.416;2023-02-02T08:11:35;9.00;99.90
19880;DHT22;10102;50.828;4.416;2023-02-02T08:14:04;9.10;99.90
19880;DHT22;10102;50.828;4.416;2023-02-02T08:16:31;9.10;99.90
19880;DHT22;10102;50.828;4.416;2023-02-02T08:21:24;9.20;99.90
19880;DHT22;10102;50.828;4.416;2023-02-02T08:23:51;9.40;99.90
19880;DHT22;10102;50.828;4.416;2023-02-02T08:26:19;9.40;99.90
19880;DHT22;10102;50.828;4.416;2023-02-02T08:28:48;9.50;99.90
19880;DHT22;10102;50.828;4.416;2023-02-02T08:31:23;9.60;99.90
19880;DHT22;10102;50.828;4.416;2023-02-02T08:33:49;9.60;99.90
19880;DHT22;10102;50.828;4.416;2023-02-02T08:36:18;9.60;99.90
19880;DHT22;10102;50.828;4.416;2023-02-02T08:38:45;9.50;99.90
19880;DHT22;10102;50.828;4.416;2023-02-02T08:41:13;9.40;99.90
19880;DHT22;10102;50.828;4.416;2023-02-02T08:43:40;9.50;99.90
19880;DHT22;10102;50.828;4.416;2023-02-02T08:46:06;9.40;99.90
19880;DHT22;10102;50.828;4.416;2023-02-02T08:48:33;9.50;99.90
19880;DHT22;10102;50.828;4.416;2023-02-02T08:50:59;9.60;99.90
19880;DHT22;10102;50.828;4.416;2023-02-02T08:53:25;9.70;99.90
19880;DHT22;10102;50.828;4.416;2023-02-02T08:56:05;9.30;99.90
19880;DHT22;10102;50.828;4.416;2023-02-02T08:58:33;9.40;99.90
19880;DHT22;10102;50.828;4.416;2023-02-02T09:01:04;9.50;99.90
19880;DHT22;10102;50.828;4.416;2023-02-02T09:03:30;9.50;99.90
19880;DHT22;10102;50.828;4.416;2023-02-02T09:05:56;9.30;99.90
19880;DHT22;10102;50.828;4.416;2023-02-02T09:08:21;9.90;99.90
19880;DHT22;10102;50.828;4.416;2023-02-02T09:10:47;9.50;99.90
19880;DHT22;10102;50.828;4.416;2023-02-02T09:15:38;9.80;99.90
19880;DHT22;10102;50.828;4.416;2023-02-02T09:18:04;9.60;99.90
19880;DHT22;10102;50.828;4.416;2023-02-02T09:20:30;9.80;99.90
19880;DHT22;10102;50.828;4.416;2023-02-02T09:22:56;10.00;99.90
19880;DHT22;10102;50.828;4.416;2023-02-02T09:25:24;10.20;99.90
19880;DHT22;10102;50.828;4.416;2023-02-02T09:27:51;10.30;99.90
19880;DHT22;10102;50.828;4.416;2023-02-02T09:30:17;10.30;99.90
19880;DHT22;10102;50.828;4.416;2023-02-02T09:35:10;10.20;99.90
19880;DHT22;10102;50.828;4.416;2023-02-02T09:37:35;10.50;99.90
19880;DHT22;10102;50.828;4.416;2023-02-02T09:40:02;10.20;99.90
19880;DHT22;10102;50.828;4.416;2023-02-02T09:50:46;11.00;99.90
19880;DHT22;10102;50.828;4.416;2023-02-02T09:53:29;10.30;99.90
19880;DHT22;10102;50.828;4.416;2023-02-02T09:56:00;10.50;99.90
19880;DHT22;10102;50.828;4.416;2023-02-02T09:58:33;10.60;99.90
19880;DHT22;10102;50.828;4.416;2023-02-02T10:06:38;11.20;99.90
19880;DHT22;10102;50.828;4.416;2023-02-02T10:14:25;11.00;99.90
19880;DHT22;10102;50.828;4.416;2023-02-02T10:16:54;10.90;99.90
19880;DHT22;10102;50.828;4.416;2023-02-02T10:19:22;11.20;99.90
19880;DHT22;10102;50.828;4.416;2023-02-02T10:22:04;11.30;99.90
19880;DHT22;10102;50.828;4.416;2023-02-02T10:24:32;11.20;99.90
19880;DHT22;10102;50.828;4.416;2023-02-02T10:27:24;11.40;99.90
19880;DHT22;10102;50.828;4.416;2023-02-02T10:29:59;11.60;99.90
19880;DHT22;10102;50.828;4.416;2023-02-02T10:32:28;11.80;99.90
19880;DHT22;10102;50.828;4.416;2023-02-02T10:35:29;11.80;99.90
19880;DHT22;10102;50.828;4.416;2023-02-02T10:46:39;11.40;99.90
19880;DHT22;10102;50.828;4.416;2023-02-02T10:49:32;11.50;99.90
19880;DHT22;10102;50.828;4.416;2023-02-02T10:54:48;11.90;99.90
19880;DHT22;10102;50.828;4.416;2023-02-02T10:57:21;12.10;99.90
19880;DHT22;10102;50.828;4.416;2023-02-02T11:02:36;12.50;99.90
19880;DHT22;10102;50.828;4.416;2023-02-02T11:05:02;12.60;99.90
19880;DHT22;10102;50.828;4.416;2023-02-02T11:07:46;12.70;99.90
19880;DHT22;10102;50.828;4.416;2023-02-02T11:10:12;12.60;99.90
19880;DHT22;10102;50.828;4.416;2023-02-02T11:12:43;12.40;99.90
19880;DHT22;10102;50.828;4.416;2023-02-02T11:15:28;12.20;99.90
19880;DHT22;10102;50.828;4.416;2023-02-02T11:17:54;12.40;99.90
19880;DHT22;10102;50.828;4.416;2023-02-02T11:20:30;12.10;99.90
19880;DHT22;10102;50.828;4.416;2023-02-02T11:23:02;12.40;99.90
19880;DHT22;10102;50.828;4.416;2023-02-02T11:25:36;12.50;99.90
19880;DHT22;10102;50.828;4.416;2023-02-02T11:28:15;12.80;99.90
19880;DHT22;10102;50.828;4.416;2023-02-02T11:30:46;13.10;99.90
19880;DHT22;10102;50.828;4.416;2023-02-02T11:33:33;13.20;99.90
19880;DHT22;10102;50.828;4.416;2023-02-02T11:38:27;14.20;99.90
19880;DHT22;10102;50.828;4.416;2023-02-02T11:41:06;15.70;99.90
19880;DHT22;10102;50.828;4.416;2023-02-02T11:43:50;17.60;99.90
19880;DHT22;10102;50.828;4.416;2023-02-02T11:46:22;17.40;99.90
19880;DHT22;10102;50.828;4.416;2023-02-02T11:48:58;16.10;99.90
19880;DHT22;10102;50.828;4.416;2023-02-02T11:51:27;15.60;99.90
19880;DHT22;10102;50.828;4.416;2023-02-02T11:54:05;15.00;99.90
19880;DHT22;10102;50.828;4.416;2023-02-02T11:56:34;14.40;99.90
19880;DHT22;10102;50.828;4.416;2023-02-02T11:59:04;13.70;99.90
19880;DHT22;10102;50.828;4.416;2023-02-02T12:01:37;13.10;99.90
19880;DHT22;10102;50.828;4.416;2023-02-02T12:04:23;12.80;99.90
19880;DHT22;10102;50.828;4.416;2023-02-02T12:06:49;12.40;99.90
19880;DHT22;10102;50.828;4.416;2023-02-02T12:09:22;12.10;99.90
19880;DHT22;10102;50.828;4.416;2023-02-02T12:11:52;12.10;99.90
19880;DHT22;10102;50.828;4.416;2023-02-02T12:17:25;12.10;99.90
19880;DHT22;10102;50.828;4.416;2023-02-02T12:31:47;19.90;99.90
19880;DHT22;10102;50.828;4.416;2023-02-02T12:34:25;19.80;99.90
19880;DHT22;10102;50.828;4.416;2023-02-02T12:49:11;17.10;99.90
19880;DHT22;10102;50.828;4.416;2023-02-02T12:52:27;17.20;99.90
19880;DHT22;10102;50.828;4.416;2023-02-02T12:55:14;15.20;99.90
19880;DHT22;10102;50.828;4.416;2023-02-02T13:03:38;13.20;99.90
19880;DHT22;10102;50.828;4.416;2023-02-02T13:09:16;12.90;99.90
19880;DHT22;10102;50.828;4.416;2023-02-02T13:14:49;12.60;99.90
19880;DHT22;10102;50.828;4.416;2023-02-02T13:19:54;12.30;99.90
19880;DHT22;10102;50.828;4.416;2023-02-02T13:22:35;12.20;99.90
19880;DHT22;10102;50.828;4.416;2023-02-02T13:25:04;12.50;99.90
19880;DHT22;10102;50.828;4.416;2023-02-02T13:27:33;12.30;99.90
19880;DHT22;10102;50.828;4.416;2023-02-02T13:30:24;12.40;99.90
19880;DHT22;10102;50.828;4.416;2023-02-02T13:32:52;12.60;99.90
19880;DHT22;10102;50.828;4.416;2023-02-02T13:35:28;12.60;99.90
19880;DHT22;10102;50.828;4.416;2023-02-02T13:38:11;12.70;99.90
19880;DHT22;10102;50.828;4.416;2023-02-02T13:40:42;12.60;99.90
19880;DHT22;10102;50.828;4.416;2023-02-02T13:46:08;12.50;99.90
19880;DHT22;10102;50.828;4.416;2023-02-02T13:51:46;12.80;99.90
19880;DHT22;10102;50.828;4.416;2023-02-02T14:01:50;12.60;99.90
19880;DHT22;10102;50.828;4.416;2023-02-02T14:04:21;12.90;99.90
19880;DHT22;10102;50.828;4.416;2023-02-02T14:06:57;12.40;99.90
19880;DHT22;10102;50.828;4.416;2023-02-02T14:09:26;12.80;99.90
19880;DHT22;10102;50.828;4.416;2023-02-02T14:11:58;13.00;99.90
19880;DHT22;10102;50.828;4.416;2023-02-02T14:19:52;12.70;99.90
19880;DHT22;10102;50.828;4.416;2023-02-02T14:22:36;12.40;99.90
19880;DHT22;10102;50.828;4.416;2023-02-02T14:25:37;12.40;99.90
19880;DHT22;10102;50.828;4.416;2023-02-02T14:27:57;12.30;99.90
19880;DHT22;10102;50.828;4.416;2023-02-02T14:30:34;11.90;99.90
19880;DHT22;10102;50.828;4.416;2023-02-02T14:43:15;11.90;99.90
19880;DHT22;10102;50.828;4.416;2023-02-02T14:46:22;11.90;99.90
19880;DHT22;10102;50.828;4.416;2023-02-02T14:51:25;11.90;99.90
19880;DHT22;10102;50.828;4.416;2023-02-02T14:53:55;11.70;99.90
19880;DHT22;10102;50.828;4.416;2023-02-02T14:56:44;11.80;99.90
19880;DHT22;10102;50.828;4.416;2023-02-02T14:59:43;11.70;99.90
19880;DHT22;10102;50.828;4.416;2023-02-02T15:02:28;11.50;99.90
19880;DHT22;10102;50.828;4.416;2023-02-02T15:08:23;11.60;99.90
19880;DHT22;10102;50.828;4.416;2023-02-02T15:11:03;11.60;99.90
19880;DHT22;10102;50.828;4.416;2023-02-02T15:13:55;11.40;99.90
19880;DHT22;10102;50.828;4.416;2023-02-02T15:16:29;11.50;99.90
19880;DHT22;10102;50.828;4.416;2023-02-02T15:19:10;11.40;99.90
19880;DHT22;10102;50.828;4.416;2023-02-02T15:21:39;11.50;99.90
19880;DHT22;10102;50.828;4.416;2023-02-02T15:24:18;11.40;99.90
19880;DHT22;10102;50.828;4.416;2023-02-02T15:26:46;11.60;99.90
19880;DHT22;10102;50.828;4.416;2023-02-02T15:29:18;11.60;99.90
19880;DHT22;10102;50.828;4.416;2023-02-02T15:31:51;11.70;99.90
19880;DHT22;10102;50.828;4.416;2023-02-02T15:34:34;11.40;99.90
19880;DHT22;10102;50.828;4.416;2023-02-02T15:37:05;11.60;99.90
19880;DHT22;10102;50.828;4.416;2023-02-02T15:39:45;11.60;99.90
19880;DHT22;10102;50.828;4.416;2023-02-02T15:42:22;11.40;99.90
19880;DHT22;10102;50.828;4.416;2023-02-02T15:47:59;11.30;99.90
19880;DHT22;10102;50.828;4.416;2023-02-02T15:50:27;11.40;99.90
19880;DHT22;10102;50.828;4.416;2023-02-02T15:52:54;11.30;99.90
19880;DHT22;10102;50.828;4.416;2023-02-02T15:55:32;11.50;99.90
19880;DHT22;10102;50.828;4.416;2023-02-02T15:57:59;11.50;99.90
19880;DHT22;10102;50.828;4.416;2023-02-02T16:00:31;11.70;99.90
19880;DHT22;10102;50.828;4.416;2023-02-02T16:03:13;11.60;99.90
19880;DHT22;10102;50.828;4.416;2023-02-02T16:05:46;11.20;99.90
19880;DHT22;10102;50.828;4.416;2023-02-02T16:08:25;11.50;99.90
19880;DHT22;10102;50.828;4.416;2023-02-02T16:11:14;11.40;99.90
19880;DHT22;10102;50.828;4.416;2023-02-02T16:13:53;11.40;99.90
19880;DHT22;10102;50.828;4.416;2023-02-02T16:16:29;11.50;99.90
19880;DHT22;10102;50.828;4.416;2023-02-02T16:19:25;11.50;99.90
19880;DHT22;10102;50.828;4.416;2023-02-02T16:22:04;11.40;99.90
19880;DHT22;10102;50.828;4.416;2023-02-02T16:24:36;11.50;99.90
19880;DHT22;10102;50.828;4.416;2023-02-02T16:27:06;11.40;99.90
19880;DHT22;10102;50.828;4.416;2023-02-02T16:29:38;11.60;99.90
19880;DHT22;10102;50.828;4.416;2023-02-02T16:32:04;11.20;99.90
19880;DHT22;10102;50.828;4.416;2023-02-02T16:39:41;11.00;99.90
19880;DHT22;10102;50.828;4.416;2023-02-02T16:42:21;11.30;99.90
19880;DHT22;10102;50.828;4.416;2023-02-02T16:44:47;11.30;99.90
19880;DHT22;10102;50.828;4.416;2023-02-02T16:53:02;11.20;99.90
19880;DHT22;10102;50.828;4.416;2023-02-02T16:55:31;11.20;99.90
19880;DHT22;10102;50.828;4.416;2023-02-02T17:00:26;11.20;99.90
19880;DHT22;10102;50.828;4.416;2023-02-02T17:03:00;11.20;99.90
19880;DHT22;10102;50.828;4.416;2023-02-02T17:05:32;10.90;99.90
19880;DHT22;10102;50.828;4.416;2023-02-02T17:08:04;11.30;99.90
19880;DHT22;10102;50.828;4.416;2023-02-02T17:10:38;11.30;99.90
19880;DHT22;10102;50.828;4.416;2023-02-02T17:13:42;11.30;99.90
19880;DHT22;10102;50.828;4.416;2023-02-02T17:16:14;11.20;99.90
19880;DHT22;10102;50.828;4.416;2023-02-02T17:18:41;11.40;99.90
19880;DHT22;10102;50.828;4.416;2023-02-02T17:21:20;11.30;99.90
19880;DHT22;10102;50.828;4.416;2023-02-02T17:23:48;11.00;99.90
19880;DHT22;10102;50.828;4.416;2023-02-02T17:28:42;11.20;99.90
19880;DHT22;10102;50.828;4.416;2023-02-02T17:31:11;11.20;99.90
19880;DHT22;10102;50.828;4.416;2023-02-02T17:33:39;11.10;99.90
19880;DHT22;10102;50.828;4.416;2023-02-02T17:36:05;10.80;99.90
19880;DHT22;10102;50.828;4.416;2023-02-02T17:38:32;10.90;99.90
19880;DHT22;10102;50.828;4.416;2023-02-02T17:40:59;10.50;99.90
19880;DHT22;10102;50.828;4.416;2023-02-02T17:43:29;10.80;99.90
19880;DHT22;10102;50.828;4.416;2023-02-02T17:45:55;10.70;99.90
19880;DHT22;10102;50.828;4.416;2023-02-02T17:48:21;10.80;99.90
19880;DHT22;10102;50.828;4.416;2023-02-02T17:50:53;10.80;99.90
19880;DHT22;10102;50.828;4.416;2023-02-02T17:53:20;11.10;99.90
19880;DHT22;10102;50.828;4.416;2023-02-02T17:55:47;10.80;99.90
19880;DHT22;10102;50.828;4.416;2023-02-02T17:58:16;10.70;99.90
19880;DHT22;10102;50.828;4.416;2023-02-02T18:00:51;10.60;99.90
19880;DHT22;10102;50.828;4.416;2023-02-02T18:03:28;10.80;99.90
19880;DHT22;10102;50.828;4.416;2023-02-02T18:05:54;10.70;99.90
19880;DHT22;10102;50.828;4.416;2023-02-02T18:08:22;10.70;99.90
19880;DHT22;10102;50.828;4.416;2023-02-02T18:10:48;10.70;99.90
19880;DHT22;10102;50.828;4.416;2023-02-02T18:13:17;10.30;99.90
19880;DHT22;10102;50.828;4.416;2023-02-02T18:15:43;10.80;99.90
19880;DHT22;10102;50.828;4.416;2023-02-02T18:18:09;10.80;99.90
19880;DHT22;10102;50.828;4.416;2023-02-02T18:20:40;10.90;99.90
19880;DHT22;10102;50.828;4.416;2023-02-02T18:23:06;11.00;99.90
19880;DHT22;10102;50.828;4.416;2023-02-02T18:25:33;11.00;99.90
19880;DHT22;10102;50.828;4.416;2023-02-02T18:30:25;10.00;99.90
19880;DHT22;10102;50.828;4.416;2023-02-02T18:32:51;10.90;99.90
19880;DHT22;10102;50.828;4.416;2023-02-02T18:35:18;11.10;99.90
19880;DHT22;10102;50.828;4.416;2023-02-02T18:37:43;11.00;99.90
19880;DHT22;10102;50.828;4.416;2023-02-02T18:40:09;11.00;99.90
19880;DHT22;10102;50.828;4.416;2023-02-02T18:42:35;11.00;99.90
19880;DHT22;10102;50.828;4.416;2023-02-02T18:45:02;11.00;99.90
19880;DHT22;10102;50.828;4.416;2023-02-02T18:47:29;11.00;99.90
19880;DHT22;10102;50.828;4.416;2023-02-02T18:49:58;11.00;99.90
19880;DHT22;10102;50.828;4.416;2023-02-02T18:52:24;11.00;99.90
19880;DHT22;10102;50.828;4.416;2023-02-02T18:54:50;11.00;99.90
19880;DHT22;10102;50.828;4.416;2023-02-02T18:57:16;10.90;99.90
19880;DHT22;10102;50.828;4.416;2023-02-02T18:59:45;10.90;99.90
19880;DHT22;10102;50.828;4.416;2023-02-02T19:02:15;10.80;99.90
19880;DHT22;10102;50.828;4.416;2023-02-02T19:04:41;10.90;99.90